Time;durP1;ratioP1;P1;durP2;ratioP2;P2;SDS_P1;SDS_P2;PMS_P1;PMS_P2;Temp;Humidity;BMP_temperature;BMP_pressure;BME280_temperature;BME280_humidity;BME280_pressure;Samples;Min_cycle;Max_cycle;Signal;HPM_P1;HPM_P2
2022/01/16 00:01:17;;;;;;;32.40;18.35;;;5.20;99.90;;;;;;5052709;28;20025;-75
2022/01/16 00:04:27;;;;;;;34.83;22.58;;;5.10;99.90;;;;;;5034525;28;20032;-74
2022/01/16 00:06:31;;;;;;;39.17;25.60;;;5.00;99.90;;;;;;5044212;28;20033;-74
2022/01/16 00:08:56;;;;;;;37.72;26.40;;;5.00;99.90;;;;;;5052940;28;20086;-74
2022/01/16 00:11:23;;;;;;;30.23;18.80;;;5.10;99.90;;;;;;5052455;28;20037;-74
2022/01/16 00:13:49;;;;;;;31.35;17.42;;;5.10;99.90;;;;;;5052921;28;20021;-74
2022/01/16 00:16:16;;;;;;;44.72;32.85;;;5.10;99.90;;;;;;5052560;28;20024;-74
2022/01/16 00:18:49;;;;;;;41.50;29.88;;;5.20;99.90;;;;;;5052560;28;20036;-74
2022/01/16 00:21:19;;;;;;;51.45;40.22;;;5.10;99.90;;;;;;5052847;28;20020;-75
2022/01/16 00:23:45;;;;;;;48.97;34.90;;;5.20;99.90;;;;;;5034299;28;20032;-74
2022/01/16 00:26:11;;;;;;;40.45;27.83;;;5.30;99.90;;;;;;5052504;28;20021;-75
2022/01/16 00:28:36;;;;;;;35.53;27.33;;;5.30;99.90;;;;;;5052453;28;20467;-75
2022/01/16 00:31:02;;;;;;;32.45;23.60;;;5.30;99.90;;;;;;5052454;28;20021;-74
2022/01/16 00:33:28;;;;;;;28.88;19.50;;;5.30;99.90;;;;;;5052449;28;20025;-74
2022/01/16 00:35:53;;;;;;;43.25;32.80;;;5.30;99.90;;;;;;5052705;28;20029;-75
2022/01/16 00:38:19;;;;;;;24.52;14.73;;;5.30;99.90;;;;;;5053115;28;20032;-74
2022/01/16 00:40:45;;;;;;;29.80;19.58;;;5.30;99.90;;;;;;5056004;28;20029;-76
2022/01/16 00:43:11;;;;;;;25.25;14.50;;;5.30;99.90;;;;;;5055885;28;20055;-74
2022/01/16 00:45:36;;;;;;;22.10;12.82;;;5.20;99.90;;;;;;5055866;28;20013;-75
2022/01/16 00:48:04;;;;;;;36.70;25.48;;;5.20;99.90;;;;;;5055834;28;20025;-75
2022/01/16 00:50:31;;;;;;;29.58;21.80;;;5.20;99.90;;;;;;5055698;28;20017;-75
2022/01/16 00:52:57;;;;;;;42.15;32.13;;;5.30;99.90;;;;;;5055723;28;20060;-74
2022/01/16 00:55:23;;;;;;;29.98;20.80;;;5.30;99.90;;;;;;5055681;28;20036;-73
2022/01/16 00:57:49;;;;;;;29.35;21.95;;;5.30;99.90;;;;;;5055650;28;20486;-75
2022/01/16 01:00:15;;;;;;;27.92;20.50;;;5.30;99.90;;;;;;5055583;28;20096;-74
2022/01/16 01:02:41;;;;;;;32.53;22.73;;;5.30;99.90;;;;;;5055393;28;20029;-74
2022/01/16 01:05:08;;;;;;;38.42;31.40;;;5.30;99.90;;;;;;5055772;28;20025;-75
2022/01/16 01:07:35;;;;;;;21.77;12.93;;;5.40;99.90;;;;;;5055444;28;20013;-74
2022/01/16 01:10:02;;;;;;;18.48;11.07;;;5.40;99.90;;;;;;5055709;28;20360;-74
2022/01/16 01:12:41;;;;;;;15.77;8.95;;;5.40;99.90;;;;;;5055217;28;20110;-74
2022/01/16 01:15:09;;;;;;;17.52;11.48;;;5.40;99.90;;;;;;5037218;28;20021;-75
2022/01/16 01:17:45;;;;;;;19.08;13.70;;;5.40;99.90;;;;;;5055300;28;20086;-74
2022/01/16 01:20:14;;;;;;;24.33;16.95;;;5.40;99.90;;;;;;5037114;28;20024;-74
2022/01/16 01:22:40;;;;;;;27.35;23.02;;;5.40;99.90;;;;;;5055355;28;20025;-74
2022/01/16 01:25:08;;;;;;;16.17;11.13;;;5.40;99.90;;;;;;5055118;28;20021;-75
2022/01/16 01:27:33;;;;;;;19.25;14.63;;;5.40;99.90;;;;;;5055100;28;20024;-75
2022/01/16 01:30:06;;;;;;;16.33;12.23;;;5.40;99.90;;;;;;5037160;28;20017;-75
2022/01/16 01:32:33;;;;;;;14.30;8.65;;;5.40;99.90;;;;;;5054998;28;20021;-74
2022/01/16 01:35:00;;;;;;;13.23;8.55;;;5.40;99.90;;;;;;5054931;28;20056;-75
2022/01/16 01:37:25;;;;;;;14.57;9.63;;;5.40;99.90;;;;;;5054908;28;20023;-73
2022/01/16 01:39:51;;;;;;;14.07;8.80;;;5.40;99.90;;;;;;5054848;28;20025;-75
2022/01/16 01:42:17;;;;;;;14.85;10.15;;;5.40;99.90;;;;;;5055079;28;20398;-73
2022/01/16 01:52:58;;;;;;;16.90;12.27;;;5.50;99.90;;;;;;5054978;28;20031;-73
2022/01/16 01:55:25;;;;;;;11.38;6.47;;;5.50;99.90;;;;;;5054873;28;20032;-75
2022/01/16 01:57:51;;;;;;;18.27;14.73;;;5.50;99.90;;;;;;5054539;28;20456;-75
2022/01/16 02:00:18;;;;;;;13.07;7.50;;;5.50;99.90;;;;;;5036511;28;20033;-73
2022/01/16 02:05:30;;;;;;;12.15;7.07;;;5.50;99.90;;;;;;5054675;28;20060;-76
2022/01/16 02:07:56;;;;;;;12.82;7.38;;;5.50;99.90;;;;;;5054312;28;20028;-75
2022/01/16 02:10:22;;;;;;;13.02;7.45;;;5.50;99.90;;;;;;5054290;28;20025;-74
2022/01/16 02:12:55;;;;;;;12.05;7.18;;;5.60;99.90;;;;;;5035956;28;20088;-75
2022/01/16 02:37:01;;;;;;;10.30;6.35;;;5.70;99.90;;;;;;5053802;28;20116;-74
2022/01/16 02:39:30;;;;;;;12.35;7.72;;;5.70;99.90;;;;;;5035929;28;20039;-75
2022/01/16 02:41:58;;;;;;;11.05;7.25;;;5.70;99.90;;;;;;5035895;28;20048;-74
2022/01/16 02:46:50;;;;;;;18.05;10.65;;;5.70;99.90;;;;;;5054180;28;20060;-74
2022/01/16 02:49:24;;;;;;;14.30;7.65;;;5.80;99.90;;;;;;5053571;28;20021;-75
2022/01/16 02:51:53;;;;;;;12.27;6.43;;;5.80;99.90;;;;;;5053841;28;20455;-74
2022/01/16 02:54:19;;;;;;;12.48;7.75;;;5.80;99.90;;;;;;5053474;28;20071;-74
2022/01/16 02:56:45;;;;;;;14.73;7.13;;;5.80;99.90;;;;;;5053703;28;20028;-75
2022/01/16 02:59:12;;;;;;;14.40;8.50;;;5.80;99.90;;;;;;5053400;28;20024;-75
2022/01/16 03:01:39;;;;;;;11.27;6.38;;;5.80;99.90;;;;;;5052660;28;20025;-75
2022/01/16 03:04:06;;;;;;;13.25;7.78;;;5.80;99.90;;;;;;5053182;28;20029;-73
2022/01/16 03:06:32;;;;;;;11.60;6.28;;;5.70;99.90;;;;;;5053347;28;20021;-75
2022/01/16 03:08:58;;;;;;;12.52;6.70;;;5.70;99.90;;;;;;5053300;28;20390;-74
2022/01/16 03:11:34;;;;;;;13.00;6.97;;;5.70;99.90;;;;;;5053035;28;20102;-75
2022/01/16 03:14:00;;;;;;;12.55;7.00;;;5.70;99.90;;;;;;5035131;28;20491;-74
2022/01/16 03:16:26;;;;;;;12.45;6.13;;;5.70;99.90;;;;;;5053205;28;20078;-75
2022/01/16 03:21:54;;;;;;;14.93;6.95;;;5.70;99.90;;;;;;5053171;28;20036;-74
2022/01/16 03:24:29;;;;;;;11.10;6.20;;;5.70;99.90;;;;;;5053331;28;20021;-74
2022/01/16 03:27:28;;;;;;;13.73;7.55;;;5.70;99.90;;;;;;5035218;28;20496;-75
2022/01/16 03:29:57;;;;;;;13.70;7.78;;;5.70;99.90;;;;;;5049255;28;20036;-74
2022/01/16 03:32:23;;;;;;;12.63;6.93;;;5.70;99.90;;;;;;5053050;28;20475;-74
2022/01/16 03:34:50;;;;;;;12.80;6.72;;;5.70;99.90;;;;;;5053260;28;20028;-75
2022/01/16 03:37:16;;;;;;;11.13;5.97;;;5.70;99.90;;;;;;5052935;28;20029;-74
2022/01/16 03:39:42;;;;;;;15.00;6.93;;;5.60;99.90;;;;;;5053236;28;20028;-75
2022/01/16 03:42:08;;;;;;;13.15;7.22;;;5.60;99.90;;;;;;5052936;28;20029;-74
2022/01/16 03:44:34;;;;;;;12.23;6.45;;;5.60;99.90;;;;;;5052883;28;20017;-75
2022/01/16 03:47:00;;;;;;;12.93;6.50;;;5.70;99.90;;;;;;5035030;28;20079;-73
2022/01/16 03:49:28;;;;;;;13.55;6.45;;;5.70;99.90;;;;;;5052886;28;20067;-73
2022/01/16 03:51:55;;;;;;;12.75;6.40;;;5.70;99.90;;;;;;5052814;28;20028;-75
2022/01/16 03:54:24;;;;;;;12.75;6.18;;;5.60;99.90;;;;;;5053130;28;20021;-75
2022/01/16 03:56:50;;;;;;;12.88;6.38;;;5.60;99.90;;;;;;5052779;28;20021;-75
2022/01/16 03:59:16;;;;;;;11.05;5.95;;;5.60;99.90;;;;;;5053045;28;20036;-74
2022/01/16 04:01:42;;;;;;;12.77;6.35;;;5.70;99.90;;;;;;5052780;28;20025;-75
2022/01/16 04:04:08;;;;;;;10.73;5.65;;;5.70;99.90;;;;;;5052618;28;20029;-74
2022/01/16 04:06:34;;;;;;;12.02;6.00;;;5.70;99.90;;;;;;5052742;28;20032;-74
2022/01/16 04:09:01;;;;;;;12.65;6.05;;;5.70;99.90;;;;;;5034812;28;20021;-74
2022/01/16 04:11:28;;;;;;;12.23;6.63;;;5.70;99.90;;;;;;5043226;28;20106;-74
2022/01/16 04:14:03;;;;;;;13.32;6.93;;;5.70;99.90;;;;;;5075960;28;20032;-74
2022/01/16 04:16:30;;;;;;;11.68;6.32;;;5.70;99.90;;;;;;5074934;28;20405;-74
2022/01/16 04:18:56;;;;;;;12.48;6.15;;;5.70;99.90;;;;;;5076443;28;20074;-74
2022/01/16 04:21:24;;;;;;;11.57;6.13;;;5.70;99.90;;;;;;5076398;28;20021;-75
2022/01/16 04:23:50;;;;;;;12.00;6.13;;;5.70;99.90;;;;;;5076238;28;20074;-74
2022/01/16 04:26:18;;;;;;;12.90;5.57;;;5.70;99.90;;;;;;5076843;28;20070;-74
2022/01/16 04:28:46;;;;;;;10.77;5.70;;;5.70;99.90;;;;;;5076245;28;20025;-75
2022/01/16 04:31:15;;;;;;;9.80;5.18;;;5.80;99.90;;;;;;5076156;28;20554;-74
2022/01/16 04:33:42;;;;;;;11.95;5.63;;;5.70;99.90;;;;;;5076162;28;20115;-74
2022/01/16 04:36:08;;;;;;;12.82;6.05;;;5.80;99.90;;;;;;5075805;28;20035;-75
2022/01/16 04:38:36;;;;;;;11.75;5.85;;;5.80;99.90;;;;;;5076342;28;20164;-75
2022/01/16 04:43:50;;;;;;;11.02;5.47;;;5.80;99.90;;;;;;5075820;28;20036;-74
2022/01/16 04:46:21;;;;;;;10.70;5.57;;;5.80;99.90;;;;;;5075968;28;20013;-74
2022/01/16 04:48:48;;;;;;;11.68;5.90;;;5.80;99.90;;;;;;5075900;28;20258;-75
2022/01/16 04:51:14;;;;;;;11.32;5.57;;;5.80;99.90;;;;;;5075838;28;20048;-75
2022/01/16 04:53:40;;;;;;;27.92;14.40;;;5.80;99.90;;;;;;5076051;28;20060;-74
2022/01/16 04:56:06;;;;;;;20.05;10.00;;;5.80;99.90;;;;;;5076071;28;20035;-74
2022/01/16 04:58:33;;;;;;;13.35;6.68;;;5.80;99.90;;;;;;5075985;28;20394;-74
2022/01/16 05:00:59;;;;;;;46.92;24.73;;;5.80;99.90;;;;;;5075617;28;20531;-74
2022/01/16 05:03:26;;;;;;;43.65;22.55;;;5.90;99.90;;;;;;5075447;28;20028;-74
2022/01/16 05:05:52;;;;;;;14.30;7.72;;;5.80;99.90;;;;;;5075834;28;20047;-75
2022/01/16 05:08:18;;;;;;;26.08;15.23;;;5.90;99.90;;;;;;5074184;28;20444;-75
2022/01/16 05:10:43;;;;;;;19.20;10.05;;;5.80;99.90;;;;;;5075457;28;20024;-73
2022/01/16 05:13:29;;;;;;;20.25;10.98;;;5.80;99.90;;;;;;5055367;28;20415;-74
2022/01/16 05:18:41;;;;;;;18.65;10.63;;;5.90;99.90;;;;;;5055599;28;20159;-74
2022/01/16 05:21:07;;;;;;;14.43;7.65;;;5.90;99.90;;;;;;5055503;28;20040;-74
2022/01/16 05:23:34;;;;;;;16.20;9.05;;;5.80;99.90;;;;;;5054730;28;20029;-74
2022/01/16 05:26:00;;;;;;;10.32;5.57;;;5.90;99.90;;;;;;5055332;28;20009;-73
2022/01/16 05:28:27;;;;;;;13.30;6.20;;;5.90;99.90;;;;;;5055372;28;20025;-74
2022/01/16 05:30:53;;;;;;;19.40;10.13;;;5.90;99.90;;;;;;5055076;28;20096;-75
2022/01/16 05:33:19;;;;;;;24.65;12.55;;;5.90;99.90;;;;;;5055012;28;20506;-73
2022/01/16 05:35:44;;;;;;;12.27;6.45;;;5.80;99.90;;;;;;5054997;28;20017;-74
2022/01/16 05:38:11;;;;;;;16.38;9.30;;;5.80;99.90;;;;;;5054932;28;20048;-75
2022/01/16 05:40:37;;;;;;;21.85;11.82;;;5.80;99.90;;;;;;5054908;28;20139;-73
2022/01/16 05:43:03;;;;;;;14.52;8.07;;;5.80;99.90;;;;;;5055065;28;20032;-73
2022/01/16 05:45:29;;;;;;;15.05;8.48;;;5.80;99.90;;;;;;5054780;28;20018;-74
2022/01/16 05:47:55;;;;;;;18.65;10.38;;;5.90;99.90;;;;;;5054745;28;20024;-74
2022/01/16 05:50:22;;;;;;;27.83;15.65;;;5.80;99.90;;;;;;5036745;28;20501;-74
2022/01/16 05:52:48;;;;;;;16.25;8.70;;;5.90;99.90;;;;;;5054898;28;20044;-75
2022/01/16 05:55:13;;;;;;;15.38;8.68;;;5.80;99.90;;;;;;5054921;28;20021;-74
2022/01/16 05:57:40;;;;;;;26.50;16.25;;;5.80;99.90;;;;;;5055168;28;20025;-75
2022/01/16 06:00:07;;;;;;;19.17;11.32;;;5.80;99.90;;;;;;5036563;28;20025;-75
2022/01/16 06:02:33;;;;;;;15.77;8.68;;;5.80;99.90;;;;;;5054425;28;20028;-74
2022/01/16 06:04:59;;;;;;;15.68;9.27;;;5.80;99.90;;;;;;5054908;28;20114;-74
2022/01/16 06:07:25;;;;;;;16.33;9.88;;;5.80;99.90;;;;;;5054674;28;20071;-75
2022/01/16 06:09:52;;;;;;;12.52;7.18;;;5.80;99.90;;;;;;5036702;28;20028;-74
2022/01/16 06:12:18;;;;;;;14.20;7.97;;;5.70;99.90;;;;;;5054092;28;20048;-75
2022/01/16 06:14:44;;;;;;;16.52;9.93;;;5.80;99.90;;;;;;5054503;28;20024;-74
2022/01/16 06:17:09;;;;;;;16.83;9.05;;;5.80;99.90;;;;;;5054171;28;20029;-75
2022/01/16 06:19:35;;;;;;;15.32;10.10;;;5.90;99.90;;;;;;5054156;28;20037;-75
2022/01/16 06:22:01;;;;;;;14.70;7.90;;;5.90;99.90;;;;;;5054091;28;20100;-73
2022/01/16 06:24:26;;;;;;;13.43;8.23;;;5.90;99.90;;;;;;5053922;28;20024;-73
2022/01/16 06:26:52;;;;;;;20.95;11.85;;;5.90;99.90;;;;;;5054304;28;20063;-75
2022/01/16 06:29:18;;;;;;;20.35;13.20;;;5.90;99.90;;;;;;5053955;28;20017;-76
2022/01/16 06:31:45;;;;;;;17.10;9.68;;;5.90;99.90;;;;;;5053933;28;20029;-75
2022/01/16 06:34:11;;;;;;;14.40;8.55;;;5.90;99.90;;;;;;5054112;28;20036;-75
2022/01/16 06:36:37;;;;;;;11.80;7.13;;;5.90;99.90;;;;;;5053826;28;20104;-74
2022/01/16 06:39:09;;;;;;;15.55;10.05;;;5.90;99.90;;;;;;5053770;28;20518;-74
2022/01/16 06:41:35;;;;;;;13.65;7.82;;;5.90;99.90;;;;;;5054098;28;20032;-74
2022/01/16 06:44:01;;;;;;;14.35;8.35;;;6.00;99.90;;;;;;5054161;28;20024;-74
2022/01/16 06:46:27;;;;;;;12.85;7.45;;;5.90;99.90;;;;;;5053694;28;20026;-74
2022/01/16 06:48:54;;;;;;;22.25;11.85;;;5.90;99.90;;;;;;5053624;28;20017;-74
2022/01/16 06:51:21;;;;;;;18.38;9.93;;;5.90;99.90;;;;;;5053613;28;20438;-74
2022/01/16 06:53:48;;;;;;;15.52;8.65;;;5.90;99.90;;;;;;5053505;28;20017;-75
2022/01/16 06:56:14;;;;;;;14.10;6.95;;;5.90;99.90;;;;;;5053768;28;20032;-74
2022/01/16 06:58:40;;;;;;;17.90;9.18;;;5.90;99.90;;;;;;5053447;28;20368;-75
2022/01/16 07:01:06;;;;;;;14.68;8.82;;;5.90;99.90;;;;;;5053400;28;20538;-74
2022/01/16 07:03:32;;;;;;;15.00;8.77;;;6.00;99.90;;;;;;5053250;28;20100;-73
2022/01/16 07:05:59;;;;;;;15.98;8.48;;;6.00;99.90;;;;;;5053333;28;20032;-75
2022/01/16 07:08:26;;;;;;;15.13;9.82;;;6.00;99.90;;;;;;5053313;28;20024;-75
2022/01/16 07:10:53;;;;;;;22.23;12.50;;;6.00;99.90;;;;;;5052931;28;20107;-74
2022/01/16 07:13:21;;;;;;;81.95;54.80;;;5.90;99.90;;;;;;5035130;28;20099;-74
2022/01/16 07:15:47;;;;;;;22.48;15.77;;;5.90;99.90;;;;;;5053191;28;20025;-74
2022/01/16 07:18:15;;;;;;;12.60;8.63;;;6.00;99.90;;;;;;5053422;28;20049;-75
2022/01/16 07:20:40;;;;;;;15.35;8.73;;;6.00;99.90;;;;;;5053135;28;20021;-73
2022/01/16 07:23:06;;;;;;;13.68;8.30;;;6.00;99.90;;;;;;5053335;28;20104;-74
2022/01/16 07:25:32;;;;;;;14.77;9.18;;;5.90;99.90;;;;;;5053378;28;20443;-75
2022/01/16 07:27:57;;;;;;;11.77;5.47;;;6.00;99.90;;;;;;5053355;28;20525;-74
2022/01/16 07:30:23;;;;;;;17.17;8.93;;;6.00;99.90;;;;;;5053038;28;20091;-74
2022/01/16 07:32:49;;;;;;;15.32;8.35;;;6.00;99.90;;;;;;5052980;28;20025;-73
2022/01/16 07:35:14;;;;;;;12.00;7.10;;;5.90;99.90;;;;;;5053544;28;20052;-75
2022/01/16 07:37:40;;;;;;;13.27;7.25;;;5.90;99.90;;;;;;5052971;28;20028;-76
2022/01/16 07:40:09;;;;;;;15.93;9.68;;;5.90;99.90;;;;;;5053227;28;20028;-74
2022/01/16 07:42:34;;;;;;;14.32;9.60;;;6.00;99.90;;;;;;5035039;28;20032;-75
2022/01/16 07:45:00;;;;;;;13.02;8.18;;;6.00;99.90;;;;;;5053383;28;20025;-73
2022/01/16 07:47:25;;;;;;;17.35;10.63;;;6.00;99.90;;;;;;5054127;28;20371;-75
2022/01/16 07:49:51;;;;;;;14.07;8.45;;;6.00;99.90;;;;;;5057248;28;20017;-75
2022/01/16 07:52:17;;;;;;;15.68;8.30;;;6.00;99.90;;;;;;5056922;28;20096;-76
2022/01/16 07:54:42;;;;;;;14.80;9.40;;;6.00;99.90;;;;;;5056955;28;20021;-75
2022/01/16 07:57:08;;;;;;;15.23;9.73;;;6.00;99.90;;;;;;5057413;28;20040;-75
2022/01/16 07:59:34;;;;;;;12.77;7.88;;;6.00;99.90;;;;;;5056810;28;20048;-74
2022/01/16 08:02:00;;;;;;;12.65;7.30;;;6.00;99.90;;;;;;5056750;28;20025;-75
2022/01/16 08:04:25;;;;;;;11.70;6.55;;;6.00;99.90;;;;;;5056551;28;20028;-75
2022/01/16 08:06:51;;;;;;;11.82;7.25;;;6.00;99.90;;;;;;5056651;28;20112;-75
2022/01/16 08:09:17;;;;;;;10.63;6.15;;;6.00;99.90;;;;;;5056861;28;20032;-74
2022/01/16 08:11:42;;;;;;;15.75;9.43;;;6.10;99.90;;;;;;5056395;28;20043;-74
2022/01/16 08:14:08;;;;;;;13.18;7.70;;;6.10;99.90;;;;;;5056793;28;20024;-76
2022/01/16 08:16:34;;;;;;;13.00;6.07;;;6.10;99.90;;;;;;5056753;28;20524;-74
2022/01/16 08:18:59;;;;;;;11.27;6.10;;;6.10;99.90;;;;;;5056721;28;20021;-74
2022/01/16 08:21:25;;;;;;;18.13;11.82;;;6.10;99.90;;;;;;5056671;28;20064;-73
2022/01/16 08:23:50;;;;;;;23.33;17.40;;;6.10;99.90;;;;;;5056570;28;20113;-74
2022/01/16 08:26:16;;;;;;;18.67;11.88;;;6.10;99.90;;;;;;5056040;28;20033;-75
2022/01/16 08:28:42;;;;;;;19.48;13.70;;;6.10;99.90;;;;;;5056294;28;20021;-75
2022/01/16 08:31:07;;;;;;;17.95;11.55;;;6.10;99.90;;;;;;5056175;28;20029;-74
2022/01/16 08:33:33;;;;;;;19.13;13.82;;;6.20;99.90;;;;;;5056429;28;20025;-74
2022/01/16 08:35:59;;;;;;;17.55;11.68;;;6.20;99.90;;;;;;5056428;28;20037;-74
2022/01/16 08:38:26;;;;;;;15.73;11.40;;;6.20;99.90;;;;;;5056077;28;20028;-74
2022/01/16 08:40:52;;;;;;;17.52;11.57;;;6.30;99.90;;;;;;5056044;28;20029;-73
2022/01/16 08:43:18;;;;;;;15.98;10.15;;;6.30;99.90;;;;;;5055903;28;20059;-74
2022/01/16 08:45:44;;;;;;;16.33;10.35;;;6.30;99.90;;;;;;5055941;28;20061;-74
2022/01/16 08:48:10;;;;;;;19.67;14.15;;;6.30;99.90;;;;;;5055876;28;20017;-74
2022/01/16 08:50:37;;;;;;;32.42;22.33;;;6.40;99.90;;;;;;5055887;28;20470;-74
2022/01/16 08:53:03;;;;;;;15.38;10.27;;;6.40;99.90;;;;;;5055811;28;20025;-74
2022/01/16 08:55:29;;;;;;;16.52;11.05;;;6.40;99.90;;;;;;5055747;28;20113;-74
2022/01/16 08:57:59;;;;;;;15.23;9.25;;;6.40;99.90;;;;;;5055675;28;20088;-75
2022/01/16 09:00:25;;;;;;;15.10;9.97;;;6.40;99.90;;;;;;5054483;28;20074;-74
2022/01/16 09:02:51;;;;;;;12.90;8.25;;;6.50;99.90;;;;;;5055482;28;20083;-75
2022/01/16 09:05:16;;;;;;;12.52;8.30;;;6.50;99.90;;;;;;5055557;28;20036;-74
2022/01/16 09:07:42;;;;;;;13.82;8.88;;;6.50;99.90;;;;;;5055803;28;20104;-74
2022/01/16 09:10:09;;;;;;;10.48;6.55;;;6.60;99.90;;;;;;5055702;28;20379;-74
2022/01/16 09:12:36;;;;;;;11.30;6.45;;;6.70;99.90;;;;;;5055140;28;20041;-74
2022/01/16 09:15:06;;;;;;;24.23;14.98;;;6.70;99.90;;;;;;5055414;28;20029;-74
2022/01/16 09:17:32;;;;;;;14.40;9.43;;;6.70;99.90;;;;;;5055854;28;20021;-75
2022/01/16 09:19:57;;;;;;;13.30;8.13;;;6.80;99.90;;;;;;5055565;28;20033;-75
2022/01/16 09:22:23;;;;;;;13.85;9.10;;;6.80;99.90;;;;;;5055272;28;20032;-74
2022/01/16 09:24:49;;;;;;;11.20;6.97;;;6.90;99.90;;;;;;5055148;28;20029;-75
2022/01/16 09:27:15;;;;;;;13.52;8.88;;;6.90;99.90;;;;;;5055152;28;20021;-73
2022/01/16 09:29:41;;;;;;;14.80;11.55;;;6.90;99.90;;;;;;5055134;28;20031;-75
2022/01/16 09:32:07;;;;;;;12.50;7.82;;;7.00;99.90;;;;;;5055077;28;20021;-75
2022/01/16 09:34:33;;;;;;;9.20;5.53;;;7.00;99.90;;;;;;5054953;28;20036;-75
2022/01/16 09:36:58;;;;;;;13.02;8.60;;;7.00;99.90;;;;;;5055267;28;20406;-75
2022/01/16 09:39:24;;;;;;;12.15;7.75;;;7.00;99.90;;;;;;5055183;28;20065;-74
2022/01/16 09:41:50;;;;;;;10.23;6.95;;;7.00;99.90;;;;;;5055488;28;20017;-74
2022/01/16 09:44:17;;;;;;;12.90;8.98;;;7.10;99.90;;;;;;5054562;28;20448;-74
2022/01/16 09:46:43;;;;;;;11.60;6.20;;;7.10;99.90;;;;;;5055120;28;20045;-75
2022/01/16 09:49:08;;;;;;;9.85;5.60;;;7.10;99.90;;;;;;5055046;28;20053;-74
2022/01/16 09:51:34;;;;;;;13.43;7.45;;;7.10;99.90;;;;;;5054995;28;20096;-74
2022/01/16 09:54:01;;;;;;;12.25;7.88;;;7.10;99.90;;;;;;5054650;28;20530;-75
2022/01/16 09:56:26;;;;;;;11.55;6.53;;;7.10;99.90;;;;;;5054655;28;20029;-74
2022/01/16 09:58:52;;;;;;;13.80;9.90;;;7.20;99.90;;;;;;5054585;28;20481;-75
2022/01/16 10:01:18;;;;;;;12.45;7.95;;;7.20;99.90;;;;;;5054543;28;20064;-74
2022/01/16 10:03:46;;;;;;;12.18;7.32;;;7.20;99.90;;;;;;5054331;28;20035;-75
2022/01/16 10:06:17;;;;;;;13.15;7.35;;;7.30;99.90;;;;;;5054220;28;20018;-75
2022/01/16 10:08:44;;;;;;;14.70;9.82;;;7.40;99.90;;;;;;5054666;28;20024;-73
2022/01/16 10:11:39;;;;;;;15.38;10.10;;;7.40;99.90;;;;;;5053742;28;20037;-75
2022/01/16 10:14:16;;;;;;;15.02;9.70;;;7.40;99.90;;;;;;5054823;28;20024;-75
2022/01/16 10:16:42;;;;;;;28.42;18.85;;;7.40;99.90;;;;;;5054256;28;20087;-75
2022/01/16 10:19:38;;;;;;;14.35;8.73;;;7.40;99.90;;;;;;5036248;28;20128;-74
2022/01/16 10:22:11;;;;;;;12.80;8.27;;;7.50;99.90;;;;;;5037029;28;20055;-74
2022/01/16 10:24:39;;;;;;;14.55;9.35;;;7.50;99.90;;;;;;5054277;28;20025;-73
2022/01/16 10:27:08;;;;;;;12.25;7.25;;;7.60;99.90;;;;;;5054047;28;20028;-75
2022/01/16 10:29:48;;;;;;;12.30;8.02;;;7.60;99.90;;;;;;5054229;28;20028;-75
2022/01/16 10:32:17;;;;;;;;;;;7.60;99.90;;;;;;5054984;28;20049;-74
2022/01/16 10:34:44;;;;;;;12.73;9.05;;;7.70;99.90;;;;;;5053917;28;19904;-75
2022/01/16 10:37:30;;;;;;;10.63;7.13;;;7.70;99.90;;;;;;5053811;28;20082;-75
2022/01/16 10:40:07;;;;;;;16.88;13.60;;;7.60;99.90;;;;;;5035648;28;20040;-74
2022/01/16 10:42:34;;;;;;;12.68;7.25;;;7.70;99.90;;;;;;5053743;28;20083;-75
2022/01/16 10:45:10;;;;;;;14.60;9.73;;;7.70;99.90;;;;;;5053898;28;20021;-74
2022/01/16 10:47:44;;;;;;;11.25;7.05;;;7.70;99.90;;;;;;5054227;28;20020;-75
2022/01/16 10:50:12;;;;;;;16.55;11.70;;;7.70;99.90;;;;;;5035709;28;20465;-75
2022/01/16 10:52:46;;;;;;;26.55;17.60;;;7.70;99.90;;;;;;5053841;28;20024;-75
2022/01/16 10:55:11;;;;;;;14.27;8.27;;;7.70;99.90;;;;;;5053801;28;20025;-75
2022/01/16 10:57:37;;;;;;;13.70;7.50;;;7.80;99.90;;;;;;5053758;28;20032;-74
2022/01/16 11:00:10;;;;;;;18.55;11.80;;;7.90;99.90;;;;;;5053749;28;20390;-74
2022/01/16 11:02:36;;;;;;;16.27;10.77;;;8.00;99.90;;;;;;5053848;28;20029;-75
2022/01/16 11:05:17;;;;;;;39.45;25.13;;;8.10;99.90;;;;;;5053313;28;20383;-74
2022/01/16 11:07:43;;;;;;;;;;;8.20;99.90;;;;;;5054404;28;20029;-75
2022/01/16 11:10:20;;;;;;;10.38;6.22;;;8.20;99.90;;;;;;5053325;28;19951;-75
2022/01/16 11:12:48;;;;;;;13.70;8.82;;;8.30;99.90;;;;;;5053017;28;20045;-76
2022/01/16 11:15:14;;;;;;;14.32;9.60;;;8.30;99.90;;;;;;5053230;28;20545;-75
2022/01/16 11:17:40;;;;;;;17.38;12.15;;;8.20;99.90;;;;;;5053167;28;20028;-74
2022/01/16 11:20:08;;;;;;;13.90;10.05;;;8.20;99.90;;;;;;5053178;28;20056;-74
2022/01/16 11:22:46;;;;;;;14.63;8.73;;;8.20;99.90;;;;;;5052481;28;20372;-74
2022/01/16 11:25:23;;;;;;;14.00;9.32;;;8.20;99.90;;;;;;5034912;28;20056;-75
2022/01/16 11:27:51;;;;;;;17.38;13.98;;;8.30;99.90;;;;;;5053390;28;20017;-75
2022/01/16 11:30:17;;;;;;;14.90;10.05;;;8.30;99.90;;;;;;5053383;28;20413;-75
2022/01/16 11:32:43;;;;;;;16.15;10.70;;;8.30;99.90;;;;;;5053035;28;20552;-74
2022/01/16 11:35:09;;;;;;;15.50;10.45;;;8.20;99.90;;;;;;5052992;28;20031;-74
2022/01/16 11:37:36;;;;;;;13.38;8.52;;;8.30;99.90;;;;;;5052975;28;20422;-75
2022/01/16 11:40:28;;;;;;;14.05;9.88;;;8.30;99.90;;;;;;5053012;28;20029;-75
2022/01/16 11:43:18;;;;;;;12.77;8.65;;;8.30;99.90;;;;;;5052887;28;20037;-75
2022/01/16 11:46:03;;;;;;;12.60;8.32;;;8.30;99.90;;;;;;5053012;28;20025;-74
2022/01/16 11:48:47;;;;;;;14.35;8.40;;;8.30;99.90;;;;;;5053211;28;20025;-75
2022/01/16 11:51:43;;;;;;;12.38;6.70;;;8.30;99.90;;;;;;5053181;28;20025;-74
2022/01/16 11:54:19;;;;;;;11.50;6.65;;;8.40;99.90;;;;;;5018645;28;20049;-74
2022/01/16 11:56:44;;;;;;;14.02;8.82;;;8.50;99.90;;;;;;5053415;28;20029;-74
2022/01/16 11:59:13;;;;;;;11.25;7.20;;;8.40;99.90;;;;;;5052787;28;20036;-75
2022/01/16 12:01:53;;;;;;;13.57;7.80;;;8.50;99.90;;;;;;5053288;28;20036;-76
2022/01/16 12:04:31;;;;;;;13.15;8.30;;;8.60;99.90;;;;;;5052710;28;20021;-74
2022/01/16 12:07:12;;;;;;;14.73;9.02;;;8.60;99.90;;;;;;5052730;28;20025;-74
2022/01/16 12:09:50;;;;;;;10.73;7.45;;;8.60;99.90;;;;;;5052731;28;20024;-74
2022/01/16 12:12:16;;;;;;;14.25;9.63;;;8.60;99.90;;;;;;5052642;28;20068;-74
2022/01/16 12:15:00;;;;;;;12.57;8.65;;;8.70;99.90;;;;;;5052621;28;20021;-75
2022/01/16 12:17:44;;;;;;;12.23;8.25;;;8.80;99.90;;;;;;5053197;28;20429;-75
2022/01/16 12:20:20;;;;;;;15.85;10.73;;;8.90;99.90;;;;;;5052915;28;20022;-74
2022/01/16 12:22:48;;;;;;;12.40;7.85;;;9.00;99.90;;;;;;5053128;28;20459;-75
2022/01/16 12:25:26;;;;;;;12.73;8.27;;;9.10;99.90;;;;;;5034665;28;20395;-74
2022/01/16 12:27:51;;;;;;;10.65;6.97;;;9.20;99.90;;;;;;5053134;28;20021;-75
2022/01/16 12:33:16;;;;;;;13.45;6.90;;;9.20;99.90;;;;;;5053392;28;20123;-74
2022/01/16 12:35:42;;;;;;;12.20;7.00;;;9.20;99.90;;;;;;5056160;28;20044;-75
2022/01/16 12:38:23;;;;;;;10.20;6.78;;;9.20;99.90;;;;;;5056119;28;20058;-75
2022/01/16 12:41:21;;;;;;;11.52;7.10;;;9.20;99.90;;;;;;5056065;28;20111;-75
2022/01/16 12:43:51;;;;;;;10.05;6.68;;;9.20;99.90;;;;;;5056532;28;20036;-75
2022/01/16 12:46:37;;;;;;;11.43;6.63;;;9.20;99.90;;;;;;5055919;28;20029;-75
2022/01/16 12:49:10;;;;;;;17.23;10.30;;;9.20;99.90;;;;;;5056233;28;20078;-75
2022/01/16 12:51:40;;;;;;;11.80;8.00;;;9.20;99.90;;;;;;5056203;28;20109;-74
2022/01/16 12:54:15;;;;;;;14.13;8.80;;;9.30;99.90;;;;;;5055899;28;20142;-74
2022/01/16 12:56:52;;;;;;;13.57;9.02;;;9.30;99.90;;;;;;5056072;28;20028;-74
2022/01/16 12:59:23;;;;;;;12.25;8.07;;;9.40;99.90;;;;;;5056000;28;20021;-75
2022/01/16 13:01:59;;;;;;;14.07;8.48;;;9.50;99.90;;;;;;5055986;28;20556;-75
2022/01/16 13:04:34;;;;;;;15.32;9.02;;;9.60;99.90;;;;;;5055575;28;20449;-74
2022/01/16 13:07:09;;;;;;;12.48;8.50;;;9.70;99.90;;;;;;5055610;28;20027;-74
2022/01/16 13:09:36;;;;;;;15.07;9.15;;;9.70;99.90;;;;;;5055834;28;20486;-74
2022/01/16 13:12:03;;;;;;;13.15;8.23;;;9.60;99.90;;;;;;5055571;28;20462;-74
2022/01/16 13:14:35;;;;;;;16.65;9.73;;;9.60;99.90;;;;;;5055415;28;20364;-74
2022/01/16 13:17:08;;;;;;;16.58;9.90;;;9.60;99.90;;;;;;5055405;28;20022;-75
2022/01/16 13:19:39;;;;;;;18.48;9.43;;;9.60;99.90;;;;;;5055654;28;20368;-74
2022/01/16 13:24:51;;;;;;;17.88;10.77;;;9.60;99.90;;;;;;5054971;28;20402;-75
2022/01/16 13:27:19;;;;;;;13.32;9.07;;;9.60;99.90;;;;;;5037118;28;20108;-74
2022/01/16 13:29:48;;;;;;;17.20;10.18;;;9.60;99.90;;;;;;5055700;28;20021;-75
2022/01/16 13:32:18;;;;;;;17.10;10.32;;;9.50;99.90;;;;;;5055379;28;20021;-75
2022/01/16 13:34:45;;;;;;;16.80;10.90;;;9.50;99.90;;;;;;5055075;28;20100;-75
2022/01/16 13:37:20;;;;;;;17.73;10.68;;;9.50;99.90;;;;;;5055313;28;20621;-75
2022/01/16 13:40:09;;;;;;;19.73;14.18;;;9.50;99.90;;;;;;5055578;28;20035;-74